sensor_id;sensor_type;location;lat;lon;timestamp;P1;durP1;ratioP1;P2;durP2;ratioP2
8986;SDS011;4529;51.360;12.474;2022-08-19T00:03:58;17.37;;;15.23;;
8986;SDS011;4529;51.360;12.474;2022-08-19T00:09:02;15.90;;;14.37;;
8986;SDS011;4529;51.360;12.474;2022-08-19T00:14:05;16.17;;;14.47;;
8986;SDS011;4529;51.360;12.474;2022-08-19T00:19:08;16.60;;;14.90;;
8986;SDS011;4529;51.360;12.474;2022-08-19T00:24:12;17.30;;;15.27;;
8986;SDS011;4529;51.360;12.474;2022-08-19T00:29:18;17.23;;;15.43;;
8986;SDS011;4529;51.360;12.474;2022-08-19T00:34:21;17.70;;;15.57;;
8986;SDS011;4529;51.360;12.474;2022-08-19T00:39:24;18.20;;;16.30;;
8986;SDS011;4529;51.360;12.474;2022-08-19T00:44:28;18.53;;;16.23;;
8986;SDS011;4529;51.360;12.474;2022-08-19T00:49:35;17.73;;;15.83;;
8986;SDS011;4529;51.360;12.474;2022-08-19T00:54:44;18.90;;;16.67;;
8986;SDS011;4529;51.360;12.474;2022-08-19T00:59:48;18.73;;;16.40;;
8986;SDS011;4529;51.360;12.474;2022-08-19T01:04:52;17.77;;;15.97;;
8986;SDS011;4529;51.360;12.474;2022-08-19T01:09:56;17.87;;;16.00;;
8986;SDS011;4529;51.360;12.474;2022-08-19T01:15:01;18.80;;;16.27;;
8986;SDS011;4529;51.360;12.474;2022-08-19T01:20:04;18.63;;;16.63;;
8986;SDS011;4529;51.360;12.474;2022-08-19T01:25:07;18.70;;;16.70;;
8986;SDS011;4529;51.360;12.474;2022-08-19T01:30:12;19.47;;;16.10;;
8986;SDS011;4529;51.360;12.474;2022-08-19T01:35:18;18.60;;;16.53;;
8986;SDS011;4529;51.360;12.474;2022-08-19T01:40:19;18.47;;;16.57;;
8986;SDS011;4529;51.360;12.474;2022-08-19T01:45:24;20.73;;;17.40;;
8986;SDS011;4529;51.360;12.474;2022-08-19T01:50:27;19.90;;;17.77;;
8986;SDS011;4529;51.360;12.474;2022-08-19T01:55:30;20.57;;;17.30;;
8986;SDS011;4529;51.360;12.474;2022-08-19T02:00:34;20.50;;;17.37;;
8986;SDS011;4529;51.360;12.474;2022-08-19T02:05:37;19.73;;;17.63;;
8986;SDS011;4529;51.360;12.474;2022-08-19T02:10:41;19.17;;;17.10;;
8986;SDS011;4529;51.360;12.474;2022-08-19T02:15:44;20.60;;;16.63;;
8986;SDS011;4529;51.360;12.474;2022-08-19T02:20:47;17.20;;;15.40;;
8986;SDS011;4529;51.360;12.474;2022-08-19T02:25:51;17.27;;;15.47;;
8986;SDS011;4529;51.360;12.474;2022-08-19T02:30:55;17.53;;;15.63;;
8986;SDS011;4529;51.360;12.474;2022-08-19T02:36:03;16.80;;;15.03;;
8986;SDS011;4529;51.360;12.474;2022-08-19T02:41:11;16.77;;;15.03;;
8986;SDS011;4529;51.360;12.474;2022-08-19T02:46:18;16.87;;;14.00;;
8986;SDS011;4529;51.360;12.474;2022-08-19T02:51:24;15.53;;;13.73;;
8986;SDS011;4529;51.360;12.474;2022-08-19T02:56:24;16.90;;;13.97;;
8986;SDS011;4529;51.360;12.474;2022-08-19T03:01:31;15.13;;;13.53;;
8986;SDS011;4529;51.360;12.474;2022-08-19T03:06:31;14.03;;;12.63;;
8986;SDS011;4529;51.360;12.474;2022-08-19T03:11:35;15.63;;;14.00;;
8986;SDS011;4529;51.360;12.474;2022-08-19T03:16:44;14.33;;;12.83;;
8986;SDS011;4529;51.360;12.474;2022-08-19T03:21:45;12.97;;;11.67;;
8986;SDS011;4529;51.360;12.474;2022-08-19T03:26:50;13.47;;;12.17;;
8986;SDS011;4529;51.360;12.474;2022-08-19T03:31:53;13.30;;;12.00;;
8986;SDS011;4529;51.360;12.474;2022-08-19T03:36:59;13.20;;;11.90;;
8986;SDS011;4529;51.360;12.474;2022-08-19T03:42:01;13.30;;;12.10;;
8986;SDS011;4529;51.360;12.474;2022-08-19T03:47:05;13.83;;;12.43;;
8986;SDS011;4529;51.360;12.474;2022-08-19T03:52:09;13.57;;;12.27;;
8986;SDS011;4529;51.360;12.474;2022-08-19T03:57:13;13.50;;;12.20;;
8986;SDS011;4529;51.360;12.474;2022-08-19T04:02:16;13.20;;;11.90;;
8986;SDS011;4529;51.360;12.474;2022-08-19T04:07:22;12.73;;;11.53;;
8986;SDS011;4529;51.360;12.474;2022-08-19T04:12:26;14.13;;;11.83;;
8986;SDS011;4529;51.360;12.474;2022-08-19T04:17:29;12.97;;;11.67;;
8986;SDS011;4529;51.360;12.474;2022-08-19T04:22:33;13.77;;;12.40;;
8986;SDS011;4529;51.360;12.474;2022-08-19T04:27:36;13.80;;;12.40;;
8986;SDS011;4529;51.360;12.474;2022-08-19T04:32:41;13.40;;;12.13;;
8986;SDS011;4529;51.360;12.474;2022-08-19T04:37:45;14.40;;;12.67;;
8986;SDS011;4529;51.360;12.474;2022-08-19T04:42:49;14.03;;;12.57;;
8986;SDS011;4529;51.360;12.474;2022-08-19T04:47:54;15.07;;;13.67;;
8986;SDS011;4529;51.360;12.474;2022-08-19T04:52:56;17.30;;;15.17;;
8986;SDS011;4529;51.360;12.474;2022-08-19T04:57:59;18.17;;;16.37;;
8986;SDS011;4529;51.360;12.474;2022-08-19T05:03:03;18.07;;;16.17;;
8986;SDS011;4529;51.360;12.474;2022-08-19T05:08:06;18.50;;;16.60;;
8986;SDS011;4529;51.360;12.474;2022-08-19T05:13:10;18.63;;;16.03;;
8986;SDS011;4529;51.360;12.474;2022-08-19T05:18:13;18.83;;;16.83;;
8986;SDS011;4529;51.360;12.474;2022-08-19T05:23:17;20.30;;;18.20;;
8986;SDS011;4529;51.360;12.474;2022-08-19T05:28:21;21.87;;;18.87;;
8986;SDS011;4529;51.360;12.474;2022-08-19T05:33:25;23.20;;;18.20;;
8986;SDS011;4529;51.360;12.474;2022-08-19T05:38:29;21.07;;;18.40;;
8986;SDS011;4529;51.360;12.474;2022-08-19T05:43:32;23.03;;;19.87;;
8986;SDS011;4529;51.360;12.474;2022-08-19T05:48:36;26.13;;;21.67;;
8986;SDS011;4529;51.360;12.474;2022-08-19T05:53:39;25.27;;;22.57;;
8986;SDS011;4529;51.360;12.474;2022-08-19T05:58:43;26.13;;;22.40;;
8986;SDS011;4529;51.360;12.474;2022-08-19T06:03:46;26.17;;;21.77;;
8986;SDS011;4529;51.360;12.474;2022-08-19T06:08:50;25.47;;;21.00;;
8986;SDS011;4529;51.360;12.474;2022-08-19T06:13:53;27.13;;;20.33;;
8986;SDS011;4529;51.360;12.474;2022-08-19T06:18:59;23.20;;;20.20;;
8986;SDS011;4529;51.360;12.474;2022-08-19T06:24:02;28.43;;;24.17;;
8986;SDS011;4529;51.360;12.474;2022-08-19T06:29:06;27.40;;;23.53;;
8986;SDS011;4529;51.360;12.474;2022-08-19T06:34:09;28.37;;;23.83;;
8986;SDS011;4529;51.360;12.474;2022-08-19T06:39:14;27.30;;;24.13;;
8986;SDS011;4529;51.360;12.474;2022-08-19T06:44:20;28.90;;;24.27;;
8986;SDS011;4529;51.360;12.474;2022-08-19T06:49:23;27.47;;;24.13;;
8986;SDS011;4529;51.360;12.474;2022-08-19T06:54:26;28.27;;;24.57;;
8986;SDS011;4529;51.360;12.474;2022-08-19T06:59:30;28.57;;;23.93;;
8986;SDS011;4529;51.360;12.474;2022-08-19T07:04:34;33.13;;;26.20;;
8986;SDS011;4529;51.360;12.474;2022-08-19T07:09:37;30.10;;;25.57;;
8986;SDS011;4529;51.360;12.474;2022-08-19T07:14:40;30.93;;;26.13;;
8986;SDS011;4529;51.360;12.474;2022-08-19T07:19:43;35.67;;;28.33;;
8986;SDS011;4529;51.360;12.474;2022-08-19T07:24:47;34.97;;;27.00;;
8986;SDS011;4529;51.360;12.474;2022-08-19T07:29:53;33.63;;;26.43;;
8986;SDS011;4529;51.360;12.474;2022-08-19T07:34:55;35.97;;;25.50;;
8986;SDS011;4529;51.360;12.474;2022-08-19T07:40:00;36.17;;;25.77;;
8986;SDS011;4529;51.360;12.474;2022-08-19T07:45:03;31.83;;;24.67;;
8986;SDS011;4529;51.360;12.474;2022-08-19T07:50:08;32.73;;;24.17;;
8986;SDS011;4529;51.360;12.474;2022-08-19T07:55:10;31.20;;;23.57;;
8986;SDS011;4529;51.360;12.474;2022-08-19T08:00:14;28.27;;;23.73;;
8986;SDS011;4529;51.360;12.474;2022-08-19T08:05:17;26.60;;;19.90;;
8986;SDS011;4529;51.360;12.474;2022-08-19T08:10:21;26.43;;;21.63;;
8986;SDS011;4529;51.360;12.474;2022-08-19T08:15:25;29.27;;;22.53;;
8986;SDS011;4529;51.360;12.474;2022-08-19T08:20:29;28.53;;;23.33;;
8986;SDS011;4529;51.360;12.474;2022-08-19T08:25:34;28.03;;;23.60;;
8986;SDS011;4529;51.360;12.474;2022-08-19T08:30:38;30.57;;;23.97;;
8986;SDS011;4529;51.360;12.474;2022-08-19T08:35:41;27.07;;;23.87;;
8986;SDS011;4529;51.360;12.474;2022-08-19T08:40:47;30.53;;;23.67;;
8986;SDS011;4529;51.360;12.474;2022-08-19T08:46:00;28.17;;;24.07;;
8986;SDS011;4529;51.360;12.474;2022-08-19T08:51:09;30.73;;;24.90;;
8986;SDS011;4529;51.360;12.474;2022-08-19T08:56:16;27.57;;;24.03;;
8986;SDS011;4529;51.360;12.474;2022-08-19T09:01:21;27.50;;;24.37;;
8986;SDS011;4529;51.360;12.474;2022-08-19T09:12:10;29.80;;;24.33;;
8986;SDS011;4529;51.360;12.474;2022-08-19T09:17:36;27.07;;;23.00;;
8986;SDS011;4529;51.360;12.474;2022-08-19T09:22:41;28.20;;;22.97;;
8986;SDS011;4529;51.360;12.474;2022-08-19T09:27:43;27.23;;;22.60;;
8986;SDS011;4529;51.360;12.474;2022-08-19T09:32:47;26.63;;;21.07;;
8986;SDS011;4529;51.360;12.474;2022-08-19T09:37:51;25.43;;;20.57;;
8986;SDS011;4529;51.360;12.474;2022-08-19T09:42:55;28.07;;;22.47;;
8986;SDS011;4529;51.360;12.474;2022-08-19T09:47:59;23.97;;;21.43;;
8986;SDS011;4529;51.360;12.474;2022-08-19T09:53:03;30.70;;;22.63;;
8986;SDS011;4529;51.360;12.474;2022-08-19T09:58:08;30.30;;;22.60;;
8986;SDS011;4529;51.360;12.474;2022-08-19T10:03:12;33.27;;;22.43;;
8986;SDS011;4529;51.360;12.474;2022-08-19T10:08:17;31.03;;;22.33;;
8986;SDS011;4529;51.360;12.474;2022-08-19T10:13:22;31.70;;;22.23;;
8986;SDS011;4529;51.360;12.474;2022-08-19T10:18:25;28.33;;;21.33;;
8986;SDS011;4529;51.360;12.474;2022-08-19T10:23:29;25.13;;;20.13;;
8986;SDS011;4529;51.360;12.474;2022-08-19T10:28:33;22.50;;;18.93;;
8986;SDS011;4529;51.360;12.474;2022-08-19T10:33:36;24.87;;;18.83;;
8986;SDS011;4529;51.360;12.474;2022-08-19T10:38:40;21.33;;;18.83;;
8986;SDS011;4529;51.360;12.474;2022-08-19T10:43:45;20.00;;;17.77;;
8986;SDS011;4529;51.360;12.474;2022-08-19T10:48:49;19.03;;;16.70;;
8986;SDS011;4529;51.360;12.474;2022-08-19T10:53:53;18.97;;;16.27;;
8986;SDS011;4529;51.360;12.474;2022-08-19T10:58:57;19.83;;;15.90;;
8986;SDS011;4529;51.360;12.474;2022-08-19T11:04:02;18.90;;;16.30;;
8986;SDS011;4529;51.360;12.474;2022-08-19T11:09:05;16.47;;;14.37;;
8986;SDS011;4529;51.360;12.474;2022-08-19T11:14:09;17.27;;;14.63;;
8986;SDS011;4529;51.360;12.474;2022-08-19T11:19:12;15.90;;;14.30;;
8986;SDS011;4529;51.360;12.474;2022-08-19T11:24:19;16.23;;;13.30;;
8986;SDS011;4529;51.360;12.474;2022-08-19T11:29:20;17.23;;;13.03;;
8986;SDS011;4529;51.360;12.474;2022-08-19T11:34:23;15.17;;;12.90;;
8986;SDS011;4529;51.360;12.474;2022-08-19T11:39:26;16.53;;;14.13;;
8986;SDS011;4529;51.360;12.474;2022-08-19T11:44:29;15.20;;;13.60;;
8986;SDS011;4529;51.360;12.474;2022-08-19T11:49:34;13.83;;;12.20;;
8986;SDS011;4529;51.360;12.474;2022-08-19T11:54:37;13.50;;;12.20;;
8986;SDS011;4529;51.360;12.474;2022-08-19T11:59:41;13.30;;;11.83;;
8986;SDS011;4529;51.360;12.474;2022-08-19T12:04:45;11.93;;;10.73;;
8986;SDS011;4529;51.360;12.474;2022-08-19T12:09:49;11.50;;;10.23;;
8986;SDS011;4529;51.360;12.474;2022-08-19T12:14:53;11.77;;;10.67;;
8986;SDS011;4529;51.360;12.474;2022-08-19T12:19:56;11.70;;;10.53;;
8986;SDS011;4529;51.360;12.474;2022-08-19T12:25:00;12.03;;;10.83;;
8986;SDS011;4529;51.360;12.474;2022-08-19T12:30:05;12.20;;;10.93;;
8986;SDS011;4529;51.360;12.474;2022-08-19T12:35:08;12.90;;;11.10;;
8986;SDS011;4529;51.360;12.474;2022-08-19T12:40:11;12.27;;;10.97;;
8986;SDS011;4529;51.360;12.474;2022-08-19T12:45:15;13.20;;;11.20;;
8986;SDS011;4529;51.360;12.474;2022-08-19T12:50:18;12.43;;;11.13;;
8986;SDS011;4529;51.360;12.474;2022-08-19T12:55:22;12.00;;;10.80;;
8986;SDS011;4529;51.360;12.474;2022-08-19T13:00:26;14.13;;;11.63;;
8986;SDS011;4529;51.360;12.474;2022-08-19T13:05:33;14.80;;;11.47;;
8986;SDS011;4529;51.360;12.474;2022-08-19T13:10:37;12.13;;;10.97;;
8986;SDS011;4529;51.360;12.474;2022-08-19T13:15:41;11.97;;;10.00;;
8986;SDS011;4529;51.360;12.474;2022-08-19T13:20:45;13.03;;;11.67;;
8986;SDS011;4529;51.360;12.474;2022-08-19T13:25:59;15.77;;;12.90;;
8986;SDS011;4529;51.360;12.474;2022-08-19T13:31:02;15.17;;;13.27;;
8986;SDS011;4529;51.360;12.474;2022-08-19T13:36:05;14.00;;;12.60;;
8986;SDS011;4529;51.360;12.474;2022-08-19T13:41:09;16.73;;;14.00;;
8986;SDS011;4529;51.360;12.474;2022-08-19T13:46:12;18.33;;;13.97;;
8986;SDS011;4529;51.360;12.474;2022-08-19T13:51:16;16.37;;;14.17;;
8986;SDS011;4529;51.360;12.474;2022-08-19T13:56:20;14.87;;;13.27;;
8986;SDS011;4529;51.360;12.474;2022-08-19T14:01:24;15.47;;;12.97;;
8986;SDS011;4529;51.360;12.474;2022-08-19T14:06:28;16.23;;;13.70;;
8986;SDS011;4529;51.360;12.474;2022-08-19T14:11:32;14.20;;;12.77;;
8986;SDS011;4529;51.360;12.474;2022-08-19T14:16:36;14.67;;;13.17;;
8986;SDS011;4529;51.360;12.474;2022-08-19T14:21:39;13.60;;;11.97;;
8986;SDS011;4529;51.360;12.474;2022-08-19T14:26:43;17.63;;;12.83;;
8986;SDS011;4529;51.360;12.474;2022-08-19T14:31:46;15.83;;;14.13;;
8986;SDS011;4529;51.360;12.474;2022-08-19T14:36:49;14.00;;;12.10;;
8986;SDS011;4529;51.360;12.474;2022-08-19T14:41:53;13.50;;;12.10;;
8986;SDS011;4529;51.360;12.474;2022-08-19T14:46:59;13.97;;;12.47;;
8986;SDS011;4529;51.360;12.474;2022-08-19T14:52:00;14.63;;;12.33;;
8986;SDS011;4529;51.360;12.474;2022-08-19T14:57:03;15.00;;;12.73;;
8986;SDS011;4529;51.360;12.474;2022-08-19T15:02:08;14.23;;;12.70;;
8986;SDS011;4529;51.360;12.474;2022-08-19T15:07:11;13.47;;;12.07;;
8986;SDS011;4529;51.360;12.474;2022-08-19T15:12:14;16.03;;;12.67;;
8986;SDS011;4529;51.360;12.474;2022-08-19T15:17:18;14.47;;;12.90;;
8986;SDS011;4529;51.360;12.474;2022-08-19T15:22:21;15.17;;;13.57;;
8986;SDS011;4529;51.360;12.474;2022-08-19T15:27:25;15.97;;;13.97;;
8986;SDS011;4529;51.360;12.474;2022-08-19T15:32:30;14.87;;;13.27;;
8986;SDS011;4529;51.360;12.474;2022-08-19T15:37:34;16.90;;;13.53;;
8986;SDS011;4529;51.360;12.474;2022-08-19T15:42:38;13.60;;;10.70;;
8986;SDS011;4529;51.360;12.474;2022-08-19T15:47:42;10.97;;;9.87;;
8986;SDS011;4529;51.360;12.474;2022-08-19T15:52:46;10.30;;;9.20;;
8986;SDS011;4529;51.360;12.474;2022-08-19T15:57:49;10.87;;;9.50;;
8986;SDS011;4529;51.360;12.474;2022-08-19T16:02:52;11.60;;;10.40;;
8986;SDS011;4529;51.360;12.474;2022-08-19T16:07:56;11.30;;;10.10;;
8986;SDS011;4529;51.360;12.474;2022-08-19T16:12:59;11.87;;;10.63;;
8986;SDS011;4529;51.360;12.474;2022-08-19T16:18:03;12.30;;;11.10;;
8986;SDS011;4529;51.360;12.474;2022-08-19T16:23:06;11.90;;;10.17;;
8986;SDS011;4529;51.360;12.474;2022-08-19T16:28:10;13.00;;;11.23;;
8986;SDS011;4529;51.360;12.474;2022-08-19T16:33:13;12.63;;;11.33;;
8986;SDS011;4529;51.360;12.474;2022-08-19T16:38:17;14.63;;;12.07;;
8986;SDS011;4529;51.360;12.474;2022-08-19T16:43:20;13.27;;;11.33;;
8986;SDS011;4529;51.360;12.474;2022-08-19T16:48:25;12.73;;;11.43;;
8986;SDS011;4529;51.360;12.474;2022-08-19T16:53:28;12.40;;;9.63;;
8986;SDS011;4529;51.360;12.474;2022-08-19T16:58:33;8.73;;;7.83;;
8986;SDS011;4529;51.360;12.474;2022-08-19T17:03:37;8.60;;;7.80;;
8986;SDS011;4529;51.360;12.474;2022-08-19T17:08:41;8.27;;;7.30;;
8986;SDS011;4529;51.360;12.474;2022-08-19T17:13:45;8.87;;;7.20;;
8986;SDS011;4529;51.360;12.474;2022-08-19T17:18:50;7.50;;;6.80;;
8986;SDS011;4529;51.360;12.474;2022-08-19T17:23:54;7.67;;;6.90;;
8986;SDS011;4529;51.360;12.474;2022-08-19T17:28:58;7.57;;;6.80;;
8986;SDS011;4529;51.360;12.474;2022-08-19T17:34:01;7.87;;;7.17;;
8986;SDS011;4529;51.360;12.474;2022-08-19T17:39:05;8.30;;;7.40;;
8986;SDS011;4529;51.360;12.474;2022-08-19T17:44:08;9.73;;;8.80;;
8986;SDS011;4529;51.360;12.474;2022-08-19T17:49:13;10.03;;;9.10;;
8986;SDS011;4529;51.360;12.474;2022-08-19T17:54:17;10.47;;;9.17;;
8986;SDS011;4529;51.360;12.474;2022-08-19T17:59:20;10.77;;;9.40;;
8986;SDS011;4529;51.360;12.474;2022-08-19T18:04:24;9.87;;;9.00;;
8986;SDS011;4529;51.360;12.474;2022-08-19T18:09:28;11.57;;;10.23;;
8986;SDS011;4529;51.360;12.474;2022-08-19T18:14:32;10.33;;;9.33;;
8986;SDS011;4529;51.360;12.474;2022-08-19T18:19:36;11.57;;;9.97;;
8986;SDS011;4529;51.360;12.474;2022-08-19T18:24:40;12.70;;;10.27;;
8986;SDS011;4529;51.360;12.474;2022-08-19T18:29:44;11.37;;;9.93;;
8986;SDS011;4529;51.360;12.474;2022-08-19T18:34:48;10.57;;;9.67;;
8986;SDS011;4529;51.360;12.474;2022-08-19T18:39:52;9.97;;;9.07;;
8986;SDS011;4529;51.360;12.474;2022-08-19T18:44:56;10.30;;;9.27;;
8986;SDS011;4529;51.360;12.474;2022-08-19T18:50:00;10.10;;;9.20;;
8986;SDS011;4529;51.360;12.474;2022-08-19T18:55:04;12.00;;;10.40;;
8986;SDS011;4529;51.360;12.474;2022-08-19T19:00:07;11.17;;;9.13;;
8986;SDS011;4529;51.360;12.474;2022-08-19T19:05:13;10.43;;;9.43;;
8986;SDS011;4529;51.360;12.474;2022-08-19T19:10:16;10.53;;;9.50;;
8986;SDS011;4529;51.360;12.474;2022-08-19T19:15:20;10.57;;;9.50;;
8986;SDS011;4529;51.360;12.474;2022-08-19T19:20:24;11.23;;;10.10;;
8986;SDS011;4529;51.360;12.474;2022-08-19T19:25:27;11.47;;;10.27;;
8986;SDS011;4529;51.360;12.474;2022-08-19T19:30:31;13.10;;;11.23;;
8986;SDS011;4529;51.360;12.474;2022-08-19T19:35:34;12.33;;;11.20;;
8986;SDS011;4529;51.360;12.474;2022-08-19T19:40:38;11.80;;;10.43;;
8986;SDS011;4529;51.360;12.474;2022-08-19T19:45:41;11.23;;;10.13;;
8986;SDS011;4529;51.360;12.474;2022-08-19T19:50:45;11.20;;;9.73;;
8986;SDS011;4529;51.360;12.474;2022-08-19T19:55:48;11.03;;;9.80;;
8986;SDS011;4529;51.360;12.474;2022-08-19T20:00:52;10.93;;;9.73;;
8986;SDS011;4529;51.360;12.474;2022-08-19T20:05:55;10.93;;;9.83;;
8986;SDS011;4529;51.360;12.474;2022-08-19T20:11:03;10.70;;;9.70;;
8986;SDS011;4529;51.360;12.474;2022-08-19T20:16:05;10.43;;;9.43;;
8986;SDS011;4529;51.360;12.474;2022-08-19T20:21:10;10.70;;;9.27;;
8986;SDS011;4529;51.360;12.474;2022-08-19T20:26:13;11.57;;;10.47;;
8986;SDS011;4529;51.360;12.474;2022-08-19T20:31:17;12.50;;;11.27;;
8986;SDS011;4529;51.360;12.474;2022-08-19T20:36:22;12.60;;;10.73;;
8986;SDS011;4529;51.360;12.474;2022-08-19T20:41:26;14.23;;;11.53;;
8986;SDS011;4529;51.360;12.474;2022-08-19T20:46:29;13.37;;;11.97;;
8986;SDS011;4529;51.360;12.474;2022-08-19T20:51:33;14.10;;;12.63;;
8986;SDS011;4529;51.360;12.474;2022-08-19T20:56:36;14.93;;;12.20;;
8986;SDS011;4529;51.360;12.474;2022-08-19T21:01:41;13.30;;;12.00;;
8986;SDS011;4529;51.360;12.474;2022-08-19T21:06:45;13.30;;;12.00;;
8986;SDS011;4529;51.360;12.474;2022-08-19T21:11:48;14.80;;;13.40;;
8986;SDS011;4529;51.360;12.474;2022-08-19T21:16:52;14.40;;;13.00;;
8986;SDS011;4529;51.360;12.474;2022-08-19T21:21:55;14.37;;;12.87;;
8986;SDS011;4529;51.360;12.474;2022-08-19T21:26:59;14.40;;;13.10;;
8986;SDS011;4529;51.360;12.474;2022-08-19T21:32:03;14.53;;;13.07;;
8986;SDS011;4529;51.360;12.474;2022-08-19T21:37:06;15.33;;;13.63;;
8986;SDS011;4529;51.360;12.474;2022-08-19T21:42:10;15.40;;;13.80;;
8986;SDS011;4529;51.360;12.474;2022-08-19T21:47:13;15.50;;;14.00;;
8986;SDS011;4529;51.360;12.474;2022-08-19T21:52:23;15.57;;;13.97;;
8986;SDS011;4529;51.360;12.474;2022-08-19T21:57:26;15.37;;;13.77;;
8986;SDS011;4529;51.360;12.474;2022-08-19T22:02:29;15.07;;;13.57;;
8986;SDS011;4529;51.360;12.474;2022-08-19T22:07:33;17.57;;;14.80;;
8986;SDS011;4529;51.360;12.474;2022-08-19T22:12:37;18.03;;;14.93;;
8986;SDS011;4529;51.360;12.474;2022-08-19T22:17:40;17.57;;;14.83;;
8986;SDS011;4529;51.360;12.474;2022-08-19T22:22:48;17.47;;;14.67;;
8986;SDS011;4529;51.360;12.474;2022-08-19T22:27:53;17.77;;;15.83;;
8986;SDS011;4529;51.360;12.474;2022-08-19T22:32:57;17.70;;;15.80;;
8986;SDS011;4529;51.360;12.474;2022-08-19T22:38:00;17.67;;;15.57;;
8986;SDS011;4529;51.360;12.474;2022-08-19T22:43:07;20.50;;;16.47;;
8986;SDS011;4529;51.360;12.474;2022-08-19T22:48:08;20.17;;;16.90;;
8986;SDS011;4529;51.360;12.474;2022-08-19T22:53:10;20.27;;;16.37;;
8986;SDS011;4529;51.360;12.474;2022-08-19T22:58:14;23.73;;;17.57;;
8986;SDS011;4529;51.360;12.474;2022-08-19T23:03:18;20.23;;;17.20;;
8986;SDS011;4529;51.360;12.474;2022-08-19T23:08:22;21.03;;;16.93;;
8986;SDS011;4529;51.360;12.474;2022-08-19T23:13:26;20.67;;;16.83;;
8986;SDS011;4529;51.360;12.474;2022-08-19T23:18:30;21.67;;;17.50;;
8986;SDS011;4529;51.360;12.474;2022-08-19T23:23:33;19.20;;;16.83;;
8986;SDS011;4529;51.360;12.474;2022-08-19T23:28:36;21.07;;;16.63;;
8986;SDS011;4529;51.360;12.474;2022-08-19T23:33:40;20.60;;;17.10;;
8986;SDS011;4529;51.360;12.474;2022-08-19T23:38:45;21.83;;;17.70;;
8986;SDS011;4529;51.360;12.474;2022-08-19T23:43:48;22.03;;;17.87;;
8986;SDS011;4529;51.360;12.474;2022-08-19T23:48:52;21.10;;;17.03;;
8986;SDS011;4529;51.360;12.474;2022-08-19T23:53:56;24.60;;;18.47;;
8986;SDS011;4529;51.360;12.474;2022-08-19T23:58:59;22.37;;;18.97;;
